createdAt,value
2019-02-20T00:01:41.372Z,28.90
2019-02-20T00:04:12.494Z,41.23
2019-02-20T00:06:47.470Z,36.35
2019-02-20T00:09:17.597Z,34.23
2019-02-20T00:11:47.704Z,45.95
2019-02-20T00:14:18.758Z,38.63
2019-02-20T00:16:49.079Z,31.55
2019-02-20T00:19:20.335Z,38.23
2019-02-20T00:21:50.405Z,34.58
2019-02-20T00:24:26.144Z,33.38
2019-02-20T00:26:55.847Z,29.67
2019-02-20T00:29:25.893Z,32.63
2019-02-20T00:31:55.729Z,35.48
2019-02-20T00:34:26.438Z,35.10
2019-02-20T00:36:56.152Z,33.40
2019-02-20T00:39:27.088Z,37.25
2019-02-20T00:41:57.920Z,37.75
2019-02-20T00:44:29.513Z,43.42
2019-02-20T00:47:01.923Z,34.55
2019-02-20T00:49:33.272Z,34.83
2019-02-20T00:52:12.503Z,37.00
2019-02-20T00:54:42.498Z,39.50
2019-02-20T00:57:12.355Z,58.78
2019-02-20T00:59:43.871Z,42.80
2019-02-20T01:02:13.959Z,39.58
2019-02-20T01:04:43.796Z,43.30
2019-02-20T01:07:13.506Z,40.78
2019-02-20T01:09:43.575Z,30.70
2019-02-20T01:12:13.681Z,35.55
2019-02-20T01:14:51.614Z,37.60
2019-02-20T01:17:21.452Z,33.08
2019-02-20T01:19:51.424Z,37.13
2019-02-20T01:22:21.541Z,40.12
2019-02-20T01:24:51.725Z,29.87
2019-02-20T01:27:21.829Z,34.55
2019-02-20T01:29:51.934Z,41.35
2019-02-20T01:32:22.036Z,41.92
2019-02-20T01:34:52.852Z,31.70
2019-02-20T01:37:25.873Z,34.40
2019-02-20T01:39:55.962Z,38.92
2019-02-20T01:42:35.695Z,31.45
2019-02-20T01:45:11.780Z,35.70
2019-02-20T01:47:42.898Z,28.40
2019-02-20T01:50:15.823Z,49.10
2019-02-20T01:52:47.769Z,47.43
2019-02-20T01:55:17.884Z,37.10
2019-02-20T01:57:47.708Z,36.15
2019-02-20T02:00:24.461Z,47.33
2019-02-20T02:02:54.574Z,40.70
2019-02-20T02:05:25.380Z,38.30
2019-02-20T02:07:55.342Z,42.58
2019-02-20T02:10:25.529Z,35.60
2019-02-20T02:12:59.312Z,43.68
2019-02-20T02:15:31.692Z,32.78
2019-02-20T02:18:02.313Z,36.63
2019-02-20T02:20:32.462Z,37.05
2019-02-20T02:23:08.120Z,32.33
2019-02-20T02:25:39.084Z,26.55
2019-02-20T02:28:08.916Z,31.70
2019-02-20T02:30:38.902Z,30.10
2019-02-20T02:33:08.744Z,36.48
2019-02-20T02:35:40.677Z,32.85
2019-02-20T02:38:10.524Z,31.12
2019-02-20T02:40:40.228Z,29.87
2019-02-20T02:43:11.131Z,30.82
2019-02-20T02:45:42.300Z,27.62
2019-02-20T02:48:12.139Z,32.15
2019-02-20T02:50:41.857Z,27.67
2019-02-20T02:53:18.330Z,49.60
2019-02-20T02:55:48.289Z,27.42
2019-02-20T02:58:18.392Z,28.90
2019-02-20T03:00:48.396Z,28.92
2019-02-20T03:03:18.372Z,31.12
2019-02-20T03:05:48.204Z,30.92
2019-02-20T03:08:17.932Z,35.60
2019-02-20T03:10:47.632Z,40.08
2019-02-20T03:13:17.630Z,35.38
2019-02-20T03:15:47.460Z,32.80
2019-02-20T03:18:17.662Z,29.57
2019-02-20T03:20:53.540Z,34.67
2019-02-20T03:23:23.508Z,31.75
2019-02-20T03:25:53.340Z,26.30
2019-02-20T03:28:23.306Z,34.60
2019-02-20T03:30:53.433Z,30.30
2019-02-20T03:33:27.557Z,34.33
2019-02-20T03:35:57.666Z,28.73
2019-02-20T03:38:30.560Z,31.55
2019-02-20T03:41:05.987Z,36.45
2019-02-20T03:43:38.046Z,41.90
2019-02-20T03:46:08.183Z,29.52
2019-02-20T03:48:38.982Z,33.58
2019-02-20T03:51:08.674Z,46.68
2019-02-20T03:53:38.471Z,36.68
2019-02-20T03:56:08.161Z,36.40
2019-02-20T03:58:38.218Z,43.13
2019-02-20T04:01:10.573Z,38.88
2019-02-20T04:03:41.408Z,47.90
2019-02-20T04:06:17.169Z,30.90
2019-02-20T04:08:51.808Z,30.95
2019-02-20T04:11:21.500Z,20.90
2019-02-20T04:13:51.494Z,28.12
2019-02-20T04:16:21.575Z,38.10
2019-02-20T04:18:52.622Z,25.48
2019-02-20T04:21:23.445Z,29.80
2019-02-20T04:24:02.381Z,38.05
2019-02-20T04:26:35.990Z,30.37
2019-02-20T04:29:06.087Z,32.20
2019-02-20T04:31:35.929Z,33.55
2019-02-20T04:34:05.897Z,35.35
2019-02-20T04:36:35.994Z,36.03
2019-02-20T04:39:08.090Z,33.50
2019-02-20T04:41:38.220Z,30.50
2019-02-20T04:44:08.330Z,33.58
2019-02-20T04:46:44.150Z,37.28
2019-02-20T04:49:14.134Z,32.78
2019-02-20T04:51:44.239Z,32.80
2019-02-20T04:54:14.339Z,42.58
2019-02-20T04:56:51.961Z,33.80
2019-02-20T04:59:21.805Z,30.43
2019-02-20T05:01:51.779Z,36.58
2019-02-20T05:04:21.929Z,32.53
2019-02-20T05:06:58.792Z,35.80
2019-02-20T05:09:29.547Z,27.37
2019-02-20T05:11:59.277Z,29.12
2019-02-20T05:14:29.233Z,40.55
2019-02-20T05:17:04.834Z,42.70
2019-02-20T05:19:34.557Z,32.03
2019-02-20T05:22:05.528Z,33.28
2019-02-20T05:24:35.638Z,36.90
2019-02-20T05:27:05.806Z,41.55
2019-02-20T05:29:35.641Z,37.05
2019-02-20T05:32:05.370Z,37.17
2019-02-20T05:34:36.358Z,38.10
2019-02-20T05:37:06.504Z,42.15
2019-02-20T05:39:39.874Z,75.87
2019-02-20T05:42:17.994Z,96.05
2019-02-20T05:44:47.721Z,40.78
2019-02-20T05:47:36.171Z,57.10
2019-02-20T05:50:07.878Z,75.03
2019-02-20T05:52:37.969Z,42.05
2019-02-20T05:55:09.041Z,51.15
2019-02-20T05:57:39.137Z,35.05
2019-02-20T06:00:11.922Z,50.95
2019-02-20T06:02:43.944Z,36.90
2019-02-20T06:05:15.019Z,45.03
2019-02-20T06:07:50.870Z,38.60
2019-02-20T06:10:20.703Z,37.58
2019-02-20T06:12:50.678Z,47.83
2019-02-20T06:15:20.517Z,46.23
2019-02-20T06:17:51.435Z,42.30
2019-02-20T06:20:23.269Z,48.40
2019-02-20T06:22:55.179Z,39.83
2019-02-20T06:25:26.202Z,44.00
2019-02-20T06:27:56.314Z,47.43
2019-02-20T06:30:26.158Z,47.33
2019-02-20T06:32:56.126Z,54.60
2019-02-20T06:35:28.226Z,52.20
2019-02-20T06:38:04.835Z,40.30
2019-02-20T06:40:34.797Z,40.88
2019-02-20T06:43:08.906Z,44.10
2019-02-20T06:45:39.045Z,45.10
2019-02-20T06:48:08.881Z,42.30
2019-02-20T06:50:38.849Z,45.17
2019-02-20T06:53:08.966Z,41.33
2019-02-20T06:55:40.649Z,37.93
2019-02-20T06:58:13.573Z,38.00
2019-02-20T07:00:43.554Z,44.90
2019-02-20T07:03:13.397Z,45.58
2019-02-20T07:05:44.293Z,39.40
2019-02-20T07:08:43.964Z,40.40
2019-02-20T07:11:19.169Z,37.08
2019-02-20T07:14:10.441Z,40.48
2019-02-20T07:17:05.213Z,51.40
2019-02-20T07:19:57.526Z,41.95
2019-02-20T07:22:48.049Z,32.67
2019-02-20T07:25:30.641Z,44.75
2019-02-20T07:28:15.349Z,38.45
2019-02-20T07:30:50.877Z,45.98
2019-02-20T07:33:20.577Z,39.38
2019-02-20T07:35:50.282Z,42.10
2019-02-20T07:38:19.986Z,41.28
2019-02-20T07:40:49.938Z,40.43
2019-02-20T07:43:22.665Z,39.10
2019-02-20T07:45:54.658Z,48.25
2019-02-20T07:48:24.790Z,46.70
2019-02-20T07:50:54.649Z,40.73
2019-02-20T07:53:24.634Z,38.90
2019-02-20T07:55:54.753Z,41.88
2019-02-20T07:58:25.557Z,41.33
2019-02-20T08:01:01.453Z,38.65
2019-02-20T08:03:31.357Z,37.20
2019-02-20T08:06:01.068Z,47.45
2019-02-20T08:08:31.740Z,47.23
2019-02-20T08:11:01.702Z,41.25
2019-02-20T08:13:39.085Z,45.90
2019-02-20T08:16:03.299Z,46.92
2019-02-20T08:18:33.147Z,45.08
2019-02-20T08:21:03.122Z,38.40
2019-02-20T08:23:33.226Z,51.05
2019-02-20T08:26:03.338Z,51.15
2019-02-20T08:28:33.177Z,46.15
2019-02-20T08:31:03.160Z,52.78
2019-02-20T08:33:33.014Z,43.52
2019-02-20T08:36:02.736Z,43.47
2019-02-20T08:38:32.450Z,54.03
2019-02-20T08:41:02.165Z,56.33
2019-02-20T08:43:32.143Z,47.07
2019-02-20T08:46:02.000Z,49.27
2019-02-20T08:48:31.959Z,41.63
2019-02-20T08:51:02.086Z,52.80
2019-02-20T08:53:31.925Z,43.43
2019-02-20T08:56:02.573Z,41.47
2019-02-20T08:58:32.289Z,42.10
2019-02-20T09:01:03.195Z,36.20
2019-02-20T09:03:33.049Z,44.10
2019-02-20T09:06:03.033Z,39.03
2019-02-20T09:08:35.165Z,44.60
2019-02-20T09:11:05.225Z,48.80
2019-02-20T09:13:36.517Z,41.73
2019-02-20T09:16:06.522Z,42.50
2019-02-20T09:18:37.317Z,41.30
2019-02-20T09:21:07.281Z,41.87
2019-02-20T09:23:43.127Z,43.47
2019-02-20T09:26:13.229Z,46.43
2019-02-20T09:28:49.527Z,39.80
2019-02-20T09:31:19.623Z,36.33
2019-02-20T09:33:49.451Z,42.80
2019-02-20T09:36:19.144Z,47.40
2019-02-20T09:38:49.109Z,44.80
2019-02-20T09:41:18.954Z,42.00
2019-02-20T09:43:49.281Z,46.53
2019-02-20T09:46:19.145Z,42.07
2019-02-20T09:48:48.853Z,41.03
2019-02-20T09:51:23.818Z,42.77
2019-02-20T09:53:54.725Z,34.60
2019-02-20T09:56:24.825Z,30.20
2019-02-20T09:58:56.645Z,22.17
2019-02-20T10:01:32.195Z,27.60
2019-02-20T10:04:05.559Z,24.93
2019-02-20T10:06:35.655Z,25.07
2019-02-20T10:09:06.197Z,23.43
2019-02-20T10:11:37.097Z,20.80
2019-02-20T10:14:08.344Z,23.63
2019-02-20T10:16:38.442Z,22.13
2019-02-20T10:19:08.289Z,22.57
2019-02-20T10:21:38.253Z,21.20
2019-02-20T10:24:08.089Z,27.33
2019-02-20T10:26:43.937Z,20.63
2019-02-20T10:29:18.058Z,20.43
2019-02-20T10:31:57.016Z,22.80
2019-02-20T10:34:27.146Z,21.60
2019-02-20T10:36:56.982Z,19.10
2019-02-20T10:39:26.946Z,16.67
2019-02-20T10:41:56.790Z,22.70
2019-02-20T10:44:26.763Z,17.20
2019-02-20T10:47:04.384Z,17.67
2019-02-20T10:49:34.359Z,18.07
2019-02-20T10:52:04.501Z,15.10
2019-02-20T10:54:34.606Z,15.40
2019-02-20T10:57:04.783Z,19.90
2019-02-20T10:59:34.622Z,19.53
2019-02-20T11:02:04.655Z,16.83
2019-02-20T11:04:36.738Z,19.73
2019-02-20T11:07:07.781Z,20.03
2019-02-20T11:09:37.919Z,13.25
2019-02-20T11:12:07.769Z,14.27
2019-02-20T11:14:37.940Z,14.80
2019-02-20T11:17:07.722Z,15.10
2019-02-20T11:19:38.691Z,14.80
2019-02-20T11:22:08.550Z,10.00
2019-02-20T11:24:40.206Z,10.77
2019-02-20T11:27:10.163Z,16.67
2019-02-20T11:29:40.271Z,13.73
2019-02-20T11:32:10.447Z,17.30
2019-02-20T11:34:43.535Z,13.60
2019-02-20T11:37:13.866Z,18.27
2019-02-20T11:39:50.529Z,18.33
2019-02-20T11:42:20.485Z,21.10
2019-02-20T11:44:50.630Z,15.93
2019-02-20T11:47:20.728Z,19.87
2019-02-20T11:49:56.604Z,14.23
2019-02-20T11:52:37.914Z,22.37
2019-02-20T11:55:01.718Z,14.17
2019-02-20T11:57:34.322Z,19.63
2019-02-20T12:00:08.058Z,17.70
2019-02-20T12:02:38.653Z,17.43
2019-02-20T12:05:09.358Z,10.30
2019-02-20T12:07:39.156Z,17.77
2019-02-20T12:10:12.793Z,13.30
2019-02-20T12:12:43.836Z,20.40
2019-02-20T12:15:13.741Z,13.40
2019-02-20T12:17:43.449Z,10.60
2019-02-20T12:20:13.477Z,12.30
2019-02-20T12:22:43.329Z,16.33
2019-02-20T12:25:13.296Z,13.90
2019-02-20T12:27:54.422Z,13.73
2019-02-20T12:30:24.276Z,11.47
2019-02-20T12:32:54.210Z,8.97
2019-02-20T12:35:24.426Z,13.50
2019-02-20T12:37:55.151Z,9.60
2019-02-20T12:40:25.114Z,9.23
2019-02-20T12:42:55.213Z,8.40
2019-02-20T12:45:25.135Z,7.93
2019-02-20T12:48:02.815Z,7.83
2019-02-20T12:50:32.902Z,6.17
2019-02-20T12:53:02.730Z,7.20
2019-02-20T12:55:38.496Z,9.60
2019-02-20T12:58:19.373Z,8.77
2019-02-20T13:00:50.294Z,9.60
2019-02-20T13:03:20.416Z,7.60
2019-02-20T13:05:50.510Z,8.43
2019-02-20T13:08:20.607Z,10.03
2019-02-20T13:10:51.756Z,7.60
2019-02-20T13:13:21.914Z,9.87
2019-02-20T13:15:52.014Z,12.20
2019-02-20T13:18:22.120Z,9.40
2019-02-20T13:20:52.224Z,12.67
2019-02-20T13:23:22.318Z,12.43
2019-02-20T13:25:52.414Z,9.40
2019-02-20T13:28:22.506Z,8.47
2019-02-20T13:30:52.612Z,8.60
2019-02-20T13:33:22.711Z,8.03
2019-02-20T13:35:56.382Z,6.73
2019-02-20T13:38:26.270Z,8.67
2019-02-20T13:40:55.966Z,7.90
2019-02-20T13:43:26.356Z,9.47
2019-02-20T13:45:57.339Z,11.30
2019-02-20T13:48:27.166Z,9.40
2019-02-20T13:50:58.057Z,12.70
2019-02-20T13:53:34.826Z,10.03
2019-02-20T13:56:05.562Z,11.13
2019-02-20T13:58:36.886Z,9.90
2019-02-20T14:01:06.737Z,12.43
2019-02-20T14:03:38.617Z,11.43
2019-02-20T14:06:08.454Z,13.40
2019-02-20T14:08:38.429Z,7.73
2019-02-20T14:11:10.980Z,8.60
2019-02-20T14:13:42.302Z,10.70
2019-02-20T14:16:14.901Z,6.83
2019-02-20T14:18:45.122Z,11.60
2019-02-20T14:21:21.029Z,10.70
2019-02-20T14:23:51.222Z,6.77
2019-02-20T14:26:20.918Z,10.80
2019-02-20T14:28:50.879Z,7.17
2019-02-20T14:31:20.977Z,7.70
2019-02-20T14:33:52.098Z,8.73
2019-02-20T14:36:22.895Z,6.23
2019-02-20T14:39:00.857Z,9.70
2019-02-20T14:41:39.436Z,8.17
2019-02-20T14:44:09.544Z,8.77
2019-02-20T14:46:39.636Z,8.50
2019-02-20T14:49:10.119Z,9.80
2019-02-20T14:51:45.988Z,6.90
2019-02-20T14:54:24.011Z,6.67
2019-02-20T14:56:56.513Z,13.57
2019-02-20T14:59:26.457Z,9.83
2019-02-20T15:01:56.735Z,8.30
2019-02-20T15:04:26.835Z,8.67
2019-02-20T15:06:57.366Z,6.13
2019-02-20T15:09:28.342Z,9.50
2019-02-20T15:12:04.443Z,7.83
2019-02-20T15:14:34.755Z,5.47
2019-02-20T15:17:04.536Z,9.03
2019-02-20T15:19:47.084Z,6.23
2019-02-20T15:22:16.903Z,3.73
2019-02-20T15:24:46.897Z,7.23
2019-02-20T15:27:16.996Z,5.43
2019-02-20T15:30:04.378Z,8.67
2019-02-20T15:32:38.463Z,5.73
2019-02-20T15:35:14.244Z,4.80
2019-02-20T15:37:45.180Z,9.37
2019-02-20T15:40:20.975Z,14.30
2019-02-20T15:42:51.029Z,11.90
2019-02-20T15:45:21.120Z,9.33
2019-02-20T15:47:51.219Z,9.20
2019-02-20T15:50:23.260Z,11.40
2019-02-20T15:52:54.243Z,7.50
2019-02-20T15:55:24.430Z,9.03
2019-02-20T15:57:54.341Z,14.63
2019-02-20T16:00:26.189Z,8.13
2019-02-20T16:02:56.767Z,7.90
2019-02-20T16:05:27.768Z,5.30
2019-02-20T16:07:57.854Z,9.00
2019-02-20T16:10:27.688Z,8.37
2019-02-20T16:13:00.650Z,10.47
2019-02-20T16:15:32.372Z,20.97
2019-02-20T16:18:02.512Z,11.10
2019-02-20T16:20:33.643Z,11.47
2019-02-20T16:23:03.729Z,10.40
2019-02-20T16:25:33.850Z,17.90
2019-02-20T16:28:03.680Z,15.97
2019-02-20T16:30:33.732Z,15.43
2019-02-20T16:33:04.717Z,23.17
2019-02-20T16:35:37.857Z,30.43
2019-02-20T16:38:07.956Z,29.33
2019-02-20T16:40:39.963Z,16.23
2019-02-20T16:43:09.891Z,10.80
2019-02-20T16:45:40.033Z,26.40
2019-02-20T16:48:09.869Z,25.47
2019-02-20T16:50:39.917Z,19.60
2019-02-20T16:53:20.089Z,11.50
2019-02-20T16:55:50.176Z,14.13
2019-02-20T16:58:22.437Z,18.53
2019-02-20T17:00:52.553Z,17.83
2019-02-20T17:03:25.403Z,15.53
2019-02-20T17:05:55.365Z,11.70
2019-02-20T17:08:25.541Z,16.80
2019-02-20T17:10:56.067Z,20.97
2019-02-20T17:13:26.920Z,14.10
2019-02-20T17:15:59.437Z,15.07
2019-02-20T17:18:29.545Z,10.47
2019-02-20T17:21:05.549Z,13.80
2019-02-20T17:23:36.632Z,12.07
2019-02-20T17:26:06.396Z,10.03
2019-02-20T17:28:36.079Z,7.00
2019-02-20T17:31:06.763Z,11.80
2019-02-20T17:33:36.451Z,9.07
2019-02-20T17:36:06.207Z,4.70
2019-02-20T17:38:38.319Z,5.07
2019-02-20T17:41:09.341Z,4.83
2019-02-20T17:43:39.431Z,5.30
2019-02-20T17:46:09.780Z,4.53
2019-02-20T17:48:40.541Z,3.43
2019-02-20T17:51:10.701Z,5.83
2019-02-20T17:53:40.423Z,8.00
2019-02-20T17:56:10.372Z,4.67
2019-02-20T17:58:42.612Z,6.87
2019-02-20T18:01:15.838Z,14.73
2019-02-20T18:03:46.052Z,5.00
2019-02-20T18:06:16.135Z,5.00
2019-02-20T18:08:46.217Z,4.40
2019-02-20T18:11:22.301Z,9.83
2019-02-20T18:13:58.161Z,13.30
2019-02-20T18:16:28.260Z,12.33
2019-02-20T18:18:59.095Z,9.60
2019-02-20T18:21:29.044Z,14.70
2019-02-20T18:24:00.782Z,13.43
2019-02-20T18:26:30.739Z,12.27
2019-02-20T18:29:00.873Z,9.33
2019-02-20T18:31:31.640Z,8.57
2019-02-20T18:34:01.356Z,9.30
2019-02-20T18:36:31.307Z,11.10
2019-02-20T18:39:01.157Z,13.17
2019-02-20T18:41:30.836Z,13.03
2019-02-20T18:44:00.821Z,19.20
2019-02-20T18:46:30.672Z,14.03
2019-02-20T18:49:00.351Z,15.20
2019-02-20T18:51:30.063Z,11.17
2019-02-20T18:53:59.745Z,12.43
2019-02-20T18:56:29.721Z,14.67
2019-02-20T18:59:01.743Z,10.67
2019-02-20T19:01:32.776Z,12.67
2019-02-20T19:04:03.992Z,11.90
2019-02-20T19:06:34.082Z,14.20
2019-02-20T19:09:07.049Z,8.23
2019-02-20T19:12:04.651Z,14.63
2019-02-20T19:14:47.264Z,8.43
2019-02-20T19:17:42.889Z,12.67
2019-02-20T19:20:32.349Z,12.13
2019-02-20T19:23:26.430Z,9.93
2019-02-20T19:26:30.526Z,10.00
2019-02-20T19:29:28.147Z,10.10
2019-02-20T19:32:40.110Z,9.07
2019-02-20T19:35:43.177Z,10.80
2019-02-20T19:38:18.723Z,11.28
2019-02-20T19:40:54.284Z,12.73
2019-02-20T19:43:31.049Z,12.33
2019-02-20T19:46:34.188Z,10.50
2019-02-20T19:49:13.074Z,8.43
2019-02-20T19:51:55.410Z,11.63
2019-02-20T19:54:35.839Z,23.77
2019-02-20T19:57:14.458Z,12.80
2019-02-20T20:00:10.663Z,8.73
2019-02-20T20:02:57.133Z,8.95
2019-02-20T20:05:46.716Z,12.65
2019-02-20T20:08:35.204Z,13.53
2019-02-20T20:11:18.031Z,11.97
2019-02-20T20:14:38.137Z,13.95
2019-02-20T20:17:36.797Z,12.85
2019-02-20T20:20:44.956Z,13.32
2019-02-20T20:23:44.237Z,14.45
2019-02-20T20:26:39.022Z,36.00
2019-02-20T20:29:23.673Z,15.50
2019-02-20T20:32:05.100Z,18.25
2019-02-20T20:34:40.607Z,23.57
2019-02-20T20:37:16.029Z,23.67
2019-02-20T20:40:03.238Z,19.27
2019-02-20T20:42:45.113Z,19.50
2019-02-20T20:45:23.744Z,17.90
2019-02-20T20:48:16.005Z,17.70
2019-02-20T20:51:05.367Z,16.73
2019-02-20T20:54:08.862Z,13.32
2019-02-20T20:57:05.644Z,15.08
2019-02-20T20:59:54.124Z,23.20
2019-02-20T21:02:28.831Z,17.32
2019-02-20T21:05:21.748Z,22.70
2019-02-20T21:08:10.547Z,14.63
2019-02-20T21:11:02.208Z,17.27
2019-02-20T21:13:53.565Z,17.55
2019-02-20T21:17:00.008Z,19.42
2019-02-20T21:19:52.944Z,24.50
2019-02-20T21:22:48.528Z,20.85
2019-02-20T21:26:02.464Z,17.90
2019-02-20T21:28:58.080Z,20.10
2019-02-20T21:31:54.633Z,20.80
2019-02-20T21:35:08.444Z,17.02
2019-02-20T21:38:00.521Z,18.82
2019-02-20T21:40:42.206Z,15.75
2019-02-20T21:43:44.824Z,20.12
2019-02-20T21:46:38.850Z,23.92
2019-02-20T21:49:29.473Z,14.40
2019-02-20T21:52:10.756Z,17.20
2019-02-20T21:55:14.020Z,17.57
2019-02-20T21:58:11.326Z,15.13
2019-02-20T22:00:52.046Z,23.30
2019-02-20T22:03:56.726Z,30.68
2019-02-20T22:06:53.709Z,46.50
2019-02-20T22:09:57.616Z,38.25
2019-02-20T22:13:06.838Z,35.68
2019-02-20T22:16:05.396Z,31.35
2019-02-20T22:18:39.236Z,40.78
2019-02-20T22:21:57.421Z,36.53
2019-02-20T22:24:47.058Z,34.75
2019-02-20T22:27:37.452Z,30.65
2019-02-20T22:30:28.498Z,35.83
2019-02-20T22:33:07.829Z,29.67
2019-02-20T22:35:57.616Z,14.80
2019-02-20T22:38:56.355Z,14.30
2019-02-20T22:41:39.782Z,14.35
2019-02-20T22:44:46.496Z,15.15
2019-02-20T22:47:37.199Z,20.20
2019-02-20T22:50:35.079Z,15.70
2019-02-20T22:53:13.373Z,20.00
2019-02-20T22:56:08.477Z,26.45
2019-02-20T22:58:42.397Z,17.25
2019-02-20T23:01:17.800Z,15.72
2019-02-20T23:03:50.580Z,21.48
2019-02-20T23:06:52.283Z,23.15
2019-02-20T23:09:41.858Z,20.12
2019-02-20T23:12:16.641Z,20.55
2019-02-20T23:15:01.195Z,22.07
2019-02-20T23:17:32.316Z,25.08
2019-02-20T23:20:02.146Z,23.62
2019-02-20T23:22:32.992Z,19.82
2019-02-20T23:25:02.829Z,23.00
2019-02-20T23:27:32.541Z,17.87
2019-02-20T23:30:12.248Z,19.42
2019-02-20T23:32:33.653Z,21.12
2019-02-20T23:35:06.293Z,22.15
2019-02-20T23:37:45.632Z,17.98
2019-02-20T23:40:16.429Z,21.27
2019-02-20T23:42:49.005Z,18.62
2019-02-20T23:45:18.380Z,17.42
2019-02-20T23:47:48.473Z,15.05
2019-02-20T23:50:18.586Z,23.55
2019-02-20T23:52:50.665Z,17.70
2019-02-20T23:55:20.778Z,13.75
2019-02-20T23:57:50.885Z,13.70
